^^
Your Local Weather - Clay, NY Station Historical Data
Daily Summary for March 2, 2017 Units:  English    Metric   Both
« Previous Day
Next Day »
Daily Weekly Monthly Yearly Custom
  High: Low: Average:
Temperature: 45.6 °F 19.1 °F 28 °F
Dew Point: 33.6 °F 11.7 °F 18.1 °F
Humidity: 86% 55% 67%
Wind Speed: 12.0mph 2.0mph 6.7mph
Wind Gust: 21.0mph - -
Wind- - WNW
Pressure: 30.13 in 29.36 in -
Precipitation: 0.00 in    
Historical Graphs
 
 
Tabular Data for March 2, 2017
Time Temperature Dew Point Pressure Wind Wind Speed Wind Gust Humidity Rainfall Rate (Hourly) solar
00:04 45.6 °F 33.3 °F 29.36 in West 5.0 mph 6.0 mph 62% 0.00 in 0 W/m2
00:09 45.5 °F 33.6 °F 29.38 in West 4.0 mph 4.0 mph 63% 0.00 in 0 W/m2
00:15 45.1 °F 32.0 °F 29.38 in WNW 6.0 mph 18.0 mph 60% 0.00 in 0 W/m2
00:22 44.9 °F 31.4 °F 29.38 in West 9.0 mph 9.0 mph 59% 0.00 in 0 W/m2
00:28 44.7 °F 30.8 °F 29.38 in SSW 9.0 mph 11.0 mph 58% 0.00 in 0 W/m2
00:34 44.4 °F 29.7 °F 29.38 in West 10.0 mph 12.0 mph 56% 0.00 in 0 W/m2
00:39 44.2 °F 29.5 °F 29.38 in SW 11.0 mph 11.0 mph 56% 0.00 in 0 W/m2
00:45 44.0 °F 28.9 °F 29.38 in West 11.0 mph 14.0 mph 55% 0.00 in 0 W/m2
00:52 43.9 °F 28.8 °F 29.38 in WSW 11.0 mph 13.0 mph 55% 0.00 in 0 W/m2
00:58 43.6 °F 28.5 °F 29.39 in WNW 12.0 mph 15.0 mph 55% 0.00 in 0 W/m2
01:03 43.4 °F 28.7 °F 29.39 in WNW 11.0 mph 12.0 mph 56% 0.00 in 0 W/m2
01:10 43.1 °F 28.5 °F 29.39 in WNW 10.0 mph 10.0 mph 56% 0.00 in 0 W/m2
01:15 42.9 °F 28.7 °F 29.39 in West 9.0 mph 13.0 mph 57% 0.00 in 0 W/m2
01:22 42.8 °F 28.6 °F 29.39 in WSW 9.0 mph 9.0 mph 57% 0.00 in 0 W/m2
01:28 42.6 °F 28.4 °F 29.39 in West 8.0 mph 9.0 mph 57% 0.00 in 0 W/m2
01:34 42.4 °F 28.7 °F 29.39 in SW 6.0 mph 13.0 mph 58% 0.00 in 0 W/m2
01:39 42.1 °F 28.4 °F 29.39 in West 8.0 mph 8.0 mph 58% 0.00 in 0 W/m2
01:46 41.9 °F 28.2 °F 29.39 in West 8.0 mph 9.0 mph 58% 0.00 in 0 W/m2
01:52 41.8 °F 27.7 °F 29.40 in WSW 9.0 mph 16.0 mph 57% 0.00 in 0 W/m2
01:58 41.7 °F 27.6 °F 29.40 in West 9.0 mph 16.0 mph 57% 0.00 in 0 W/m2
02:03 41.0 °F 29.4 °F 29.42 in WNW 8.0 mph 15.0 mph 63% 0.00 in 0 W/m2
02:10 39.1 °F 29.8 °F 29.42 in WNW 9.0 mph 11.0 mph 69% 0.00 in 0 W/m2
02:15 38.2 °F 29.3 °F 29.42 in West 8.0 mph 11.0 mph 70% 0.00 in 0 W/m2
02:22 38.2 °F 29.3 °F 29.42 in WNW 7.0 mph 12.0 mph 70% 0.00 in 0 W/m2
02:28 38.3 °F 29.4 °F 29.43 in NW 7.0 mph 12.0 mph 70% 0.00 in 0 W/m2
02:33 38.5 °F 28.5 °F 29.43 in West 7.0 mph 8.0 mph 67% 0.00 in 0 W/m2
02:39 38.6 °F 28.6 °F 29.43 in West 6.0 mph 11.0 mph 67% 0.00 in 0 W/m2
02:46 38.6 °F 28.6 °F 29.43 in West 5.0 mph 11.0 mph 67% 0.00 in 0 W/m2
02:52 38.5 °F 28.1 °F 29.43 in WSW 5.0 mph 8.0 mph 66% 0.00 in 0 W/m2
02:58 38.4 °F 28.4 °F 29.43 in WSW 5.0 mph 8.0 mph 67% 0.00 in 0 W/m2
03:03 38.4 °F 28.4 °F 29.43 in West 5.0 mph 12.0 mph 67% 0.00 in 0 W/m2
03:12 37.7 °F 25.1 °F 29.43 in NW 10.0 mph 13.0 mph 60% 0.00 in 0 W/m2
03:18 37.5 °F 24.9 °F 29.44 in West 10.0 mph 15.0 mph 60% 0.00 in 0 W/m2
03:23 37.3 °F 24.7 °F 29.44 in SSE 9.0 mph 21.0 mph 60% 0.00 in 0 W/m2
03:30 36.9 °F 25.1 °F 29.44 in WNW 8.0 mph 8.0 mph 62% 0.00 in 0 W/m2
03:35 36.2 °F 24.0 °F 29.44 in WNW 8.0 mph 8.0 mph 61% 0.00 in 0 W/m2
03:42 35.9 °F 23.4 °F 29.44 in West 9.0 mph 13.0 mph 60% 0.00 in 0 W/m2
03:48 35.6 °F 22.7 °F 29.46 in West 8.0 mph 13.0 mph 59% 0.00 in 0 W/m2
03:53 35.2 °F 22.7 °F 29.46 in West 8.0 mph 11.0 mph 60% 0.00 in 0 W/m2
04:00 34.5 °F 23.6 °F 29.46 in WSW 9.0 mph 9.0 mph 64% 0.00 in 0 W/m2
04:05 34.0 °F 22.3 °F 29.46 in West 9.0 mph 13.0 mph 62% 0.00 in 0 W/m2
04:12 32.7 °F 22.6 °F 29.48 in WNW 12.0 mph 17.0 mph 66% 0.00 in 0 W/m2
04:18 28.8 °F 22.8 °F 29.49 in West 10.0 mph 17.0 mph 78% 0.00 in 0 W/m2
04:24 27.7 °F 23.2 °F 29.49 in NW 8.0 mph 10.0 mph 83% 0.00 in 0 W/m2
04:29 26.7 °F 22.8 °F 29.49 in West 8.0 mph 8.0 mph 85% 0.00 in 0 W/m2
04:36 26.2 °F 22.6 °F 29.50 in WNW 9.0 mph 12.0 mph 86% 0.00 in 0 W/m2
04:42 26.0 °F 22.4 °F 29.51 in WNW 9.0 mph 9.0 mph 86% 0.00 in 0 W/m2
04:48 25.7 °F 22.1 °F 29.52 in NW 8.0 mph 13.0 mph 86% 0.00 in 0 W/m2
04:54 25.5 °F 21.3 °F 29.53 in WNW 7.0 mph 11.0 mph 84% 0.00 in 0 W/m2
05:00 24.9 °F 19.9 °F 29.54 in West 9.0 mph 17.0 mph 81% 0.00 in 0 W/m2
05:06 24.9 °F 19.6 °F 29.54 in NW 10.0 mph 17.0 mph 80% 0.00 in 0 W/m2
05:12 25.2 °F 17.4 °F 29.55 in West 9.0 mph 9.0 mph 72% 0.00 in 0 W/m2
05:18 25.3 °F 16.5 °F 29.56 in NW 8.0 mph 15.0 mph 69% 0.00 in 0 W/m2
05:23 25.2 °F 15.4 °F 29.56 in West 8.0 mph 10.0 mph 66% 0.00 in 0 W/m2
05:29 25.1 °F 15.0 °F 29.57 in WNW 9.0 mph 9.0 mph 65% 0.00 in 0 W/m2
05:36 25.0 °F 13.1 °F 29.57 in WNW 9.0 mph 14.0 mph 60% 0.00 in 0 W/m2
05:42 24.9 °F 13.0 °F 29.58 in WNW 10.0 mph 10.0 mph 60% 0.00 in 0 W/m2
05:48 24.9 °F 12.2 °F 29.60 in WNW 8.0 mph 13.0 mph 58% 0.00 in 0 W/m2
05:53 24.8 °F 13.2 °F 29.60 in WNW 8.0 mph 8.0 mph 61% 0.00 in 0 W/m2
05:59 23.7 °F 16.0 °F 29.62 in West 7.0 mph 10.0 mph 72% 0.00 in 0 W/m2
06:05 22.8 °F 16.4 °F 29.62 in West 8.0 mph 11.0 mph 76% 0.00 in 0 W/m2
06:12 22.6 °F 16.5 °F 29.62 in West 10.0 mph 10.0 mph 77% 0.00 in 0 W/m2
06:18 21.4 °F 17.0 °F 29.63 in NW 10.0 mph 16.0 mph 83% 0.00 in 0 W/m2
06:24 20.8 °F 17.0 °F 29.63 in West 10.0 mph 14.0 mph 85% 0.00 in 0 W/m2
06:30 20.4 °F 16.6 °F 29.65 in WNW 11.0 mph 19.0 mph 85% 0.00 in 0 W/m2
06:35 20.3 °F 15.7 °F 29.64 in NW 12.0 mph 19.0 mph 82% 0.00 in 0 W/m2
06:42 20.5 °F 15.0 °F 29.65 in NW 9.0 mph 12.0 mph 79% 0.00 in 0 W/m2
06:48 20.4 °F 14.3 °F 29.65 in NW 8.0 mph 14.0 mph 77% 0.00 in 0 W/m2
06:54 20.3 °F 14.2 °F 29.65 in WNW 9.0 mph 14.0 mph 77% 0.00 in 7 W/m2
07:00 20.0 °F 14.2 °F 29.66 in WNW 10.0 mph 15.0 mph 78% 0.00 in 9 W/m2
07:06 19.9 °F 14.4 °F 29.67 in NW 8.0 mph 15.0 mph 79% 0.00 in 12 W/m2
07:12 19.7 °F 14.2 °F 29.67 in NW 8.0 mph 10.0 mph 79% 0.00 in 16 W/m2
07:18 19.6 °F 14.7 °F 29.68 in West 7.0 mph 10.0 mph 81% 0.00 in 16 W/m2
07:23 19.6 °F 15.0 °F 29.68 in WNW 6.0 mph 7.0 mph 82% 0.00 in 18 W/m2
07:29 19.6 °F 15.3 °F 29.69 in NW 6.0 mph 7.0 mph 83% 0.00 in 30 W/m2
07:36 19.6 °F 15.3 °F 29.68 in West 7.0 mph 13.0 mph 83% 0.00 in 42 W/m2
07:42 19.8 °F 15.5 °F 29.69 in West 8.0 mph 8.0 mph 83% 0.00 in 49 W/m2
07:48 19.9 °F 15.3 °F 29.70 in West 8.0 mph 14.0 mph 82% 0.00 in 54 W/m2
07:54 20.0 °F 15.4 °F 29.71 in WNW 8.0 mph 8.0 mph 82% 0.00 in 47 W/m2
08:00 20.0 °F 15.4 °F 29.72 in West 6.0 mph 10.0 mph 82% 0.00 in 44 W/m2
08:05 19.9 °F 15.3 °F 29.73 in WNW 6.0 mph 10.0 mph 82% 0.00 in 62 W/m2
08:12 19.8 °F 14.9 °F 29.73 in NW 7.0 mph 7.0 mph 81% 0.00 in 84 W/m2
08:18 19.7 °F 15.1 °F 29.74 in WNW 7.0 mph 12.0 mph 82% 0.00 in 97 W/m2
08:24 19.3 °F 14.7 °F 29.74 in West 7.0 mph 8.0 mph 82% 0.00 in 84 W/m2
08:30 19.2 °F 14.9 °F 29.75 in WNW 7.0 mph 7.0 mph 83% 0.00 in 90 W/m2
08:35 19.2 °F 15.2 °F 29.75 in WNW 7.0 mph 8.0 mph 84% 0.00 in 97 W/m2
08:42 19.1 °F 15.1 °F 29.76 in WNW 6.0 mph 8.0 mph 84% 0.00 in 156 W/m2
08:48 19.2 °F 15.4 °F 29.77 in WNW 6.0 mph 8.0 mph 85% 0.00 in 156 W/m2
08:54 19.4 °F 15.4 °F 29.77 in WNW 6.0 mph 10.0 mph 84% 0.00 in 188 W/m2
09:00 19.8 °F 15.2 °F 29.78 in West 7.0 mph 8.0 mph 82% 0.00 in 197 W/m2
09:06 19.8 °F 14.3 °F 29.78 in NW 8.0 mph 12.0 mph 79% 0.00 in 207 W/m2
09:12 20.0 °F 14.8 °F 29.78 in West 8.0 mph 16.0 mph 80% 0.00 in 292 W/m2
09:18 20.4 °F 15.2 °F 29.78 in West 7.0 mph 16.0 mph 80% 0.00 in 258 W/m2
09:23 20.6 °F 15.4 °F 29.78 in WNW 7.0 mph 13.0 mph 80% 0.00 in 218 W/m2
09:29 20.8 °F 15.6 °F 29.78 in West 6.0 mph 6.0 mph 80% 0.00 in 197 W/m2
09:36 21.0 °F 15.8 °F 29.79 in West 6.0 mph 7.0 mph 80% 0.00 in 223 W/m2
09:42 21.5 °F 16.6 °F 29.79 in WNW 5.0 mph 6.0 mph 81% 0.00 in 195 W/m2
09:48 21.6 °F 16.7 °F 29.80 in WNW 5.0 mph 6.0 mph 81% 0.00 in 207 W/m2
09:53 21.8 °F 17.2 °F 29.81 in NW 5.0 mph 6.0 mph 82% 0.00 in 218 W/m2
09:59 22.0 °F 17.6 °F 29.81 in WNW 6.0 mph 8.0 mph 83% 0.00 in 288 W/m2
10:05 22.2 °F 17.8 °F 29.81 in WNW 6.0 mph 8.0 mph 83% 0.00 in 260 W/m2
10:12 22.5 °F 18.1 °F 29.81 in West 5.0 mph 10.0 mph 83% 0.00 in 218 W/m2
10:18 22.6 °F 18.2 °F 29.82 in WNW 5.0 mph 10.0 mph 83% 0.00 in 216 W/m2
10:24 22.9 °F 18.5 °F 29.82 in WNW 5.0 mph 6.0 mph 83% 0.00 in 179 W/m2
10:30 23.1 °F 19.0 °F 29.83 in NW 5.0 mph 5.0 mph 84% 0.00 in 278 W/m2
10:35 23.5 °F 19.1 °F 29.83 in WNW 5.0 mph 7.0 mph 83% 0.00 in 260 W/m2
10:42 23.7 °F 18.7 °F 29.83 in WNW 6.0 mph 8.0 mph 81% 0.00 in 262 W/m2
10:48 24.1 °F 19.1 °F 29.84 in NW 6.0 mph 8.0 mph 81% 0.00 in 190 W/m2
10:53 24.0 °F 18.7 °F 29.84 in West 6.0 mph 17.0 mph 80% 0.00 in 135 W/m2
11:00 23.9 °F 18.9 °F 29.84 in NW 7.0 mph 7.0 mph 81% 0.00 in 167 W/m2
11:06 24.1 °F 19.4 °F 29.86 in WNW 6.0 mph 11.0 mph 82% 0.00 in 151 W/m2
11:12 24.3 °F 19.6 °F 29.86 in WNW 5.0 mph 5.0 mph 82% 0.00 in 121 W/m2
11:18 24.3 °F 19.9 °F 29.86 in NW 4.0 mph 5.0 mph 83% 0.00 in 158 W/m2
11:24 24.5 °F 19.5 °F 29.86 in WNW 5.0 mph 11.0 mph 81% 0.00 in 193 W/m2
11:29 24.7 °F 18.8 °F 29.86 in WSW 7.0 mph 8.0 mph 78% 0.00 in 267 W/m2
11:35 25.0 °F 18.5 °F 29.87 in NW 8.0 mph 8.0 mph 76% 0.00 in 290 W/m2
11:42 25.9 °F 18.4 °F 29.87 in WNW 7.0 mph 8.0 mph 73% 0.00 in 364 W/m2
11:48 26.7 °F 18.9 °F 29.87 in NW 6.0 mph 6.0 mph 72% 0.00 in 371 W/m2
11:53 26.6 °F 18.1 °F 29.87 in WNW 6.0 mph 9.0 mph 70% 0.00 in 359 W/m2
11:59 26.5 °F 17.7 °F 29.87 in NNW 9.0 mph 11.0 mph 69% 0.00 in 301 W/m2
12:05 27.3 °F 18.1 °F 29.88 in WNW 8.0 mph 11.0 mph 68% 0.00 in 350 W/m2
12:12 27.4 °F 17.5 °F 29.88 in NW 7.0 mph 7.0 mph 66% 0.00 in 237 W/m2
12:18 27.1 °F 16.2 °F 29.89 in NW 8.0 mph 10.0 mph 63% 0.00 in 357 W/m2
12:23 27.2 °F 16.6 °F 29.89 in NW 8.0 mph 10.0 mph 64% 0.00 in 230 W/m2
12:29 27.8 °F 16.1 °F 29.89 in WNW 8.0 mph 8.0 mph 61% 0.00 in 396 W/m2
12:36 27.7 °F 16.4 °F 29.88 in WNW 8.0 mph 9.0 mph 62% 0.00 in 207 W/m2
12:42 27.5 °F 16.9 °F 29.89 in NW 8.0 mph 8.0 mph 64% 0.00 in 269 W/m2
12:48 27.9 °F 17.6 °F 29.89 in WNW 7.0 mph 8.0 mph 65% 0.00 in 241 W/m2
12:53 28.2 °F 16.5 °F 29.89 in NW 7.0 mph 9.0 mph 61% 0.00 in 408 W/m2
12:59 28.8 °F 16.3 °F 29.89 in NW 8.0 mph 10.0 mph 59% 0.00 in 329 W/m2
13:05 29.7 °F 17.5 °F 29.89 in WNW 8.0 mph 10.0 mph 60% 0.00 in 932 W/m2
13:12 29.0 °F 16.8 °F 29.90 in WNW 8.0 mph 14.0 mph 60% 0.00 in 434 W/m2
13:18 28.8 °F 16.6 °F 29.90 in NW 8.0 mph 14.0 mph 60% 0.00 in 355 W/m2
13:23 28.8 °F 16.3 °F 29.90 in WSW 8.0 mph 13.0 mph 59% 0.00 in 292 W/m2
13:29 29.0 °F 16.8 °F 29.91 in NW 8.0 mph 12.0 mph 60% 0.00 in 279 W/m2
13:36 28.5 °F 15.6 °F 29.91 in West 8.0 mph 12.0 mph 58% 0.00 in 179 W/m2
13:42 29.0 °F 16.1 °F 29.91 in NW 8.0 mph 8.0 mph 58% 0.00 in 800 W/m2
13:48 29.3 °F 16.7 °F 29.91 in WNW 8.0 mph 9.0 mph 59% 0.00 in 313 W/m2
13:53 29.7 °F 16.7 °F 29.92 in West 8.0 mph 8.0 mph 58% 0.00 in 274 W/m2
14:00 29.5 °F 16.9 °F 29.92 in NW 6.0 mph 6.0 mph 59% 0.00 in 244 W/m2
14:06 29.5 °F 17.7 °F 29.92 in WSW 6.0 mph 11.0 mph 61% 0.00 in 480 W/m2
14:12 29.2 °F 15.4 °F 29.92 in WNW 8.0 mph 16.0 mph 56% 0.00 in 183 W/m2
14:18 29.0 °F 16.8 °F 29.93 in West 9.0 mph 16.0 mph 60% 0.00 in 731 W/m2
14:23 29.4 °F 16.8 °F 29.93 in West 8.0 mph 9.0 mph 59% 0.00 in 216 W/m2
14:30 28.5 °F 16.0 °F 29.93 in West 8.0 mph 8.0 mph 59% 0.00 in 200 W/m2
14:36 28.2 °F 15.7 °F 29.93 in WNW 9.0 mph 10.0 mph 59% 0.00 in 130 W/m2
14:42 28.0 °F 15.9 °F 29.94 in WNW 8.0 mph 8.0 mph 60% 0.00 in 156 W/m2
14:48 28.4 °F 16.3 °F 29.94 in West 8.0 mph 10.0 mph 60% 0.00 in 218 W/m2
14:54 28.1 °F 16.0 °F 29.94 in NW 8.0 mph 10.0 mph 60% 0.00 in 127 W/m2
15:00 27.8 °F 14.5 °F 29.94 in West 8.0 mph 8.0 mph 57% 0.00 in 199 W/m2
15:06 28.9 °F 16.0 °F 29.96 in WSW 8.0 mph 14.0 mph 58% 0.00 in 635 W/m2
15:12 29.2 °F 15.4 °F 29.96 in WNW 8.0 mph 8.0 mph 56% 0.00 in 668 W/m2
15:18 29.7 °F 15.9 °F 29.96 in NW 7.0 mph 8.0 mph 56% 0.00 in 591 W/m2
15:23 29.0 °F 15.2 °F 29.97 in WNW 7.0 mph 10.0 mph 56% 0.00 in 197 W/m2
15:29 29.0 °F 16.1 °F 29.97 in West 7.0 mph 9.0 mph 58% 0.00 in 446 W/m2
15:36 29.3 °F 16.7 °F 29.97 in WNW 7.0 mph 9.0 mph 59% 0.00 in 190 W/m2
15:42 28.9 °F 16.0 °F 29.97 in WNW 6.0 mph 8.0 mph 58% 0.00 in 156 W/m2
15:48 28.5 °F 15.6 °F 29.97 in West 8.0 mph 9.0 mph 58% 0.00 in 181 W/m2
15:53 28.4 °F 15.5 °F 29.98 in West 7.0 mph 8.0 mph 58% 0.00 in 118 W/m2
16:00 28.1 °F 16.0 °F 29.98 in WNW 7.0 mph 7.0 mph 60% 0.00 in 104 W/m2
16:06 28.2 °F 14.9 °F 29.99 in West 6.0 mph 7.0 mph 57% 0.00 in 132 W/m2
16:12 28.4 °F 15.5 °F 29.99 in WNW 6.0 mph 7.0 mph 58% 0.00 in 120 W/m2
16:18 28.4 °F 15.9 °F 29.99 in West 6.0 mph 7.0 mph 59% 0.00 in 100 W/m2
16:24 28.3 °F 15.4 °F 29.99 in NW 6.0 mph 8.0 mph 58% 0.00 in 109 W/m2
16:30 28.0 °F 15.1 °F 29.99 in NW 7.0 mph 7.0 mph 58% 0.00 in 91 W/m2
16:36 27.8 °F 14.5 °F 29.99 in West 8.0 mph 8.0 mph 57% 0.00 in 70 W/m2
16:42 27.7 °F 14.8 °F 30.00 in WNW 7.0 mph 7.0 mph 58% 0.00 in 53 W/m2
16:48 27.7 °F 14.8 °F 30.00 in NW 7.0 mph 8.0 mph 58% 0.00 in 37 W/m2
16:53 27.5 °F 14.6 °F 30.00 in WNW 7.0 mph 16.0 mph 58% 0.00 in 33 W/m2
16:59 27.5 °F 14.6 °F 30.00 in West 7.0 mph 8.0 mph 58% 0.00 in 32 W/m2
17:06 27.4 °F 14.9 °F 30.00 in NW 6.0 mph 8.0 mph 59% 0.00 in 28 W/m2
17:18 27.4 °F 15.3 °F 30.02 in NNW 6.0 mph 10.0 mph 60% 0.00 in 35 W/m2
17:23 27.3 °F 15.2 °F 30.02 in NW 6.0 mph 6.0 mph 60% 0.00 in 33 W/m2
17:30 27.3 °F 15.2 °F 30.02 in WSW 5.0 mph 8.0 mph 60% 0.00 in 19 W/m2
17:36 27.2 °F 15.5 °F 30.02 in WNW 5.0 mph 9.0 mph 61% 0.00 in 18 W/m2
17:42 27.2 °F 15.1 °F 30.02 in WNW 6.0 mph 7.0 mph 60% 0.00 in 16 W/m2
17:48 27.2 °F 15.5 °F 30.02 in WNW 5.0 mph 7.0 mph 61% 0.00 in 12 W/m2
17:53 27.2 °F 15.5 °F 30.02 in NW 4.0 mph 7.0 mph 61% 0.00 in 0 W/m2
17:59 27.2 °F 15.9 °F 30.03 in NW 4.0 mph 6.0 mph 62% 0.00 in 0 W/m2
18:06 27.3 °F 16.0 °F 30.03 in WNW 5.0 mph 7.0 mph 62% 0.00 in 0 W/m2
18:12 27.4 °F 16.4 °F 30.04 in NNW 6.0 mph 8.0 mph 63% 0.00 in 0 W/m2
18:18 27.4 °F 16.4 °F 30.04 in WNW 5.0 mph 8.0 mph 63% 0.00 in 0 W/m2
18:23 27.4 °F 16.4 °F 30.04 in WNW 4.0 mph 7.0 mph 63% 0.00 in 0 W/m2
18:29 27.4 °F 16.1 °F 30.04 in NW 5.0 mph 5.0 mph 62% 0.00 in 0 W/m2
18:33 27.3 °F 16.4 °F 30.05 in WNW 6.0 mph 8.0 mph 63% 0.00 in 0 W/m2
18:40 27.2 °F 16.3 °F 30.05 in WNW 6.0 mph 6.0 mph 63% 0.00 in 0 W/m2
18:46 27.2 °F 16.6 °F 30.05 in WNW 5.0 mph 6.0 mph 64% 0.00 in 0 W/m2
18:52 27.2 °F 16.3 °F 30.06 in NW 4.0 mph 4.0 mph 63% 0.00 in 0 W/m2
18:58 27.2 °F 15.9 °F 30.06 in WNW 5.0 mph 6.0 mph 62% 0.00 in 0 W/m2
19:03 27.1 °F 16.2 °F 30.06 in WNW 5.0 mph 6.0 mph 63% 0.00 in 0 W/m2
19:09 27.1 °F 16.5 °F 30.06 in WNW 6.0 mph 6.0 mph 64% 0.00 in 0 W/m2
19:15 27.1 °F 16.5 °F 30.07 in WNW 6.0 mph 6.0 mph 64% 0.00 in 0 W/m2
19:22 27.1 °F 16.9 °F 30.07 in WNW 5.0 mph 7.0 mph 65% 0.00 in 0 W/m2
19:28 27.2 °F 17.3 °F 30.07 in WNW 5.0 mph 8.0 mph 66% 0.00 in 0 W/m2
19:34 27.2 °F 17.0 °F 30.07 in NW 5.0 mph 8.0 mph 65% 0.00 in 0 W/m2
19:39 27.3 °F 17.1 °F 30.07 in WNW 5.0 mph 5.0 mph 65% 0.00 in 0 W/m2
19:45 27.2 °F 16.6 °F 30.07 in West 4.0 mph 5.0 mph 64% 0.00 in 0 W/m2
19:52 27.2 °F 16.6 °F 30.07 in WNW 4.0 mph 4.0 mph 64% 0.00 in 0 W/m2
19:58 27.1 °F 16.2 °F 30.07 in WNW 4.0 mph 6.0 mph 63% 0.00 in 0 W/m2
20:04 27.2 °F 16.6 °F 30.07 in WNW 4.0 mph 11.0 mph 64% 0.00 in 0 W/m2
20:10 27.3 °F 16.7 °F 30.07 in WNW 4.0 mph 4.0 mph 64% 0.00 in 0 W/m2
20:15 27.3 °F 16.7 °F 30.07 in WNW 5.0 mph 6.0 mph 64% 0.00 in 0 W/m2
20:22 27.2 °F 16.6 °F 30.08 in NW 5.0 mph 6.0 mph 64% 0.00 in 0 W/m2
20:28 27.1 °F 16.2 °F 30.08 in WNW 5.0 mph 7.0 mph 63% 0.00 in 0 W/m2
20:34 26.9 °F 16.0 °F 30.08 in WNW 5.0 mph 8.0 mph 63% 0.00 in 0 W/m2
20:39 26.7 °F 15.8 °F 30.08 in WNW 5.0 mph 5.0 mph 63% 0.00 in 0 W/m2
20:45 26.6 °F 15.7 °F 30.09 in NW 5.0 mph 6.0 mph 63% 0.00 in 0 W/m2
20:52 26.5 °F 15.2 °F 30.09 in WNW 5.0 mph 6.0 mph 62% 0.00 in 0 W/m2
20:58 26.5 °F 15.6 °F 30.09 in West 5.0 mph 6.0 mph 63% 0.00 in 0 W/m2
21:04 26.5 °F 15.2 °F 30.09 in WNW 5.0 mph 9.0 mph 62% 0.00 in 0 W/m2
21:10 26.5 °F 15.6 °F 30.09 in WNW 5.0 mph 5.0 mph 63% 0.00 in 0 W/m2
21:15 26.5 °F 15.6 °F 30.09 in WNW 4.0 mph 5.0 mph 63% 0.00 in 0 W/m2
21:22 26.5 °F 16.3 °F 30.10 in WNW 4.0 mph 8.0 mph 65% 0.00 in 0 W/m2
21:28 26.5 °F 16.0 °F 30.10 in West 5.0 mph 8.0 mph 64% 0.00 in 0 W/m2
21:36 26.3 °F 15.4 °F 30.10 in NW 5.0 mph 8.0 mph 63% 0.00 in 0 W/m2
21:42 26.0 °F 14.8 °F 30.10 in NW 4.0 mph 8.0 mph 62% 0.00 in 0 W/m2
21:48 25.8 °F 14.6 °F 30.10 in WNW 5.0 mph 5.0 mph 62% 0.00 in 0 W/m2
21:53 25.6 °F 14.4 °F 30.10 in WNW 5.0 mph 6.0 mph 62% 0.00 in 0 W/m2
21:59 25.5 °F 14.3 °F 30.10 in NW 4.0 mph 4.0 mph 62% 0.00 in 0 W/m2
22:05 25.4 °F 14.2 °F 30.10 in NNW 4.0 mph 7.0 mph 62% 0.00 in 0 W/m2
22:12 25.4 °F 13.8 °F 30.11 in WNW 5.0 mph 6.0 mph 61% 0.00 in 0 W/m2
22:18 25.3 °F 13.7 °F 30.11 in NW 5.0 mph 7.0 mph 61% 0.00 in 0 W/m2
22:26 25.1 °F 13.5 °F 30.11 in NW 4.0 mph 7.0 mph 61% 0.00 in 0 W/m2
22:32 24.9 °F 13.7 °F 30.11 in NW 3.0 mph 4.0 mph 62% 0.00 in 0 W/m2
22:38 24.7 °F 12.8 °F 30.11 in WNW 3.0 mph 4.0 mph 60% 0.00 in 0 W/m2
22:43 24.5 °F 13.0 °F 30.11 in WNW 2.0 mph 6.0 mph 61% 0.00 in 0 W/m2
22:49 24.5 °F 12.2 °F 30.12 in West 3.0 mph 7.0 mph 59% 0.00 in 0 W/m2
22:55 24.6 °F 12.7 °F 30.12 in WNW 4.0 mph 7.0 mph 60% 0.00 in 0 W/m2
23:02 24.6 °F 12.7 °F 30.12 in WNW 4.0 mph 4.0 mph 60% 0.00 in 0 W/m2
23:08 24.5 °F 13.0 °F 30.12 in NW 3.0 mph 5.0 mph 61% 0.00 in 0 W/m2
23:13 24.4 °F 12.5 °F 30.12 in NW 3.0 mph 4.0 mph 60% 0.00 in 0 W/m2
23:19 24.3 °F 12.8 °F 30.12 in West 3.0 mph 7.0 mph 61% 0.00 in 0 W/m2
23:26 24.1 °F 12.6 °F 30.12 in West 3.0 mph 9.0 mph 61% 0.00 in 0 W/m2
23:32 23.9 °F 12.0 °F 30.12 in NNW 4.0 mph 9.0 mph 60% 0.00 in 0 W/m2
23:38 23.6 °F 11.7 °F 30.12 in NW 4.0 mph 9.0 mph 60% 0.00 in 0 W/m2
23:44 23.4 °F 11.9 °F 30.12 in WNW 5.0 mph 9.0 mph 61% 0.00 in 0 W/m2
23:49 23.2 °F 11.7 °F 30.13 in WNW 3.0 mph 5.0 mph 61% 0.00 in 0 W/m2
23:56 23.0 °F 11.9 °F 30.13 in WNW 3.0 mph 5.0 mph 62% 0.00 in 0 W/m2
Country Meadow, Clay, NY, USA
Compliments of Weather Underground - 2 mb